< < Back
Terminal Aerodrome Forecast


Current Version              Previous Versions:   1  2  3  4  5  6  7  8  9  

Terminal Aerodrome Forecast

248
FTUS42 KILM 140520
TAFILM
TAF
KILM 140520Z 1406/1506 01008KT P6SM SKC
     FM141400 03011KT P6SM FEW120 SCT250
     FM142100 06007KT P6SM SCT050 BKN200
     FM150400 05004KT P6SM BKN050 OVC100=

Latest METAR

260
SAUS70 KWBC 140800 RRB
MTRILM
METAR KILM 140753Z AUTO 36005KT 10SM CLR M04/M14 A3043 RMK AO2 SLP302
T10441144


USA.gov is the U.S. government's official web portal to all federal, state and local government web resources and services.